weather.gov     
National Weather Service

Terminal Aerodrome Forecast
NWS Homepage
This page is being discontinued on March 12, 2014.
The same data is available at this site. Please update your bookmarks.
Thank you, and we apologize for the inconvenience.
Please send an email to SR-SRH.Webmaster@noaa.gov with any concerns.


Current Version
Previous Version:    01  02  03  04  05  06  07  08  09  10  11  12  13  14  15  16  17  18  19  20  21  22  23  
[Printable]
749
FTUS45 KBOI 300520
TAFTWF
TAF
KTWF 300520Z 3006/3106 19011KT P6SM SCT100 BKN200
     FM301200 24013KT P6SM SCT100 BKN200
     FM301800 27015G25KT P6SM SCT150 BKN200
     FM310000 28012KT P6SM BKN150
     FM310300 24012KT P6SM VCSH BKN150=




749
FTUS45 KBOI 300520
TAFTWF
TAF
KTWF 300520Z 3006/3106 19011KT P6SM SCT100 BKN200
     FM301200 24013KT P6SM SCT100 BKN200
     FM301800 27015G25KT P6SM SCT150 BKN200
     FM310000 28012KT P6SM BKN150
     FM310300 24012KT P6SM VCSH BKN150=


U.S. Dept. of Commerce
NOAA National Weather Service
1325 East West Highway
Silver Spring, MD 20910
E-mail: w-nws.webmaster@noaa.gov
Page last modified: May 16, 2007
NATIONAL WEATHER SERVICE: for Safety, for Work, for Fun - FOR LIFE